sensor_id;sensor_type;location;lat;lon;timestamp;P1;durP1;ratioP1;P2;durP2;ratioP2
4448;SDS011;2237;51.870;6.160;2023-04-25T00:01:41;5.57;;;1.45;;
4448;SDS011;2237;51.870;6.160;2023-04-25T00:04:07;6.22;;;1.58;;
4448;SDS011;2237;51.870;6.160;2023-04-25T00:06:34;4.35;;;1.40;;
4448;SDS011;2237;51.870;6.160;2023-04-25T00:09:02;6.60;;;1.40;;
4448;SDS011;2237;51.870;6.160;2023-04-25T00:11:33;7.03;;;1.42;;
4448;SDS011;2237;51.870;6.160;2023-04-25T00:14:00;3.83;;;1.20;;
4448;SDS011;2237;51.870;6.160;2023-04-25T00:16:28;8.02;;;1.90;;
4448;SDS011;2237;51.870;6.160;2023-04-25T00:18:59;8.50;;;1.73;;
4448;SDS011;2237;51.870;6.160;2023-04-25T00:21:26;9.77;;;1.90;;
4448;SDS011;2237;51.870;6.160;2023-04-25T00:23:52;7.80;;;1.75;;
4448;SDS011;2237;51.870;6.160;2023-04-25T00:26:18;10.23;;;2.00;;
4448;SDS011;2237;51.870;6.160;2023-04-25T00:28:47;9.25;;;1.98;;
4448;SDS011;2237;51.870;6.160;2023-04-25T00:31:14;7.88;;;1.65;;
4448;SDS011;2237;51.870;6.160;2023-04-25T00:33:40;5.80;;;1.50;;
4448;SDS011;2237;51.870;6.160;2023-04-25T00:36:07;5.70;;;1.58;;
4448;SDS011;2237;51.870;6.160;2023-04-25T00:38:33;11.57;;;1.90;;
4448;SDS011;2237;51.870;6.160;2023-04-25T00:40:59;7.28;;;1.90;;
4448;SDS011;2237;51.870;6.160;2023-04-25T00:43:26;10.43;;;1.77;;
4448;SDS011;2237;51.870;6.160;2023-04-25T00:45:53;9.07;;;1.80;;
4448;SDS011;2237;51.870;6.160;2023-04-25T00:48:21;19.08;;;2.28;;
4448;SDS011;2237;51.870;6.160;2023-04-25T00:50:52;9.75;;;2.25;;
4448;SDS011;2237;51.870;6.160;2023-04-25T00:53:23;7.25;;;1.92;;
4448;SDS011;2237;51.870;6.160;2023-04-25T00:55:51;6.28;;;1.55;;
4448;SDS011;2237;51.870;6.160;2023-04-25T00:58:18;6.60;;;2.05;;
4448;SDS011;2237;51.870;6.160;2023-04-25T01:00:46;9.73;;;1.85;;
4448;SDS011;2237;51.870;6.160;2023-04-25T01:03:14;11.32;;;1.80;;
4448;SDS011;2237;51.870;6.160;2023-04-25T01:05:46;9.20;;;1.90;;
4448;SDS011;2237;51.870;6.160;2023-04-25T01:08:13;12.25;;;2.20;;
4448;SDS011;2237;51.870;6.160;2023-04-25T01:10:40;5.43;;;1.90;;
4448;SDS011;2237;51.870;6.160;2023-04-25T01:13:07;9.48;;;2.35;;
4448;SDS011;2237;51.870;6.160;2023-04-25T01:15:34;9.07;;;2.03;;
4448;SDS011;2237;51.870;6.160;2023-04-25T01:18:02;11.07;;;2.90;;
4448;SDS011;2237;51.870;6.160;2023-04-25T01:20:29;7.22;;;2.70;;
4448;SDS011;2237;51.870;6.160;2023-04-25T01:22:58;8.88;;;3.08;;
4448;SDS011;2237;51.870;6.160;2023-04-25T01:25:25;13.77;;;3.03;;
4448;SDS011;2237;51.870;6.160;2023-04-25T01:27:52;12.75;;;2.78;;
4448;SDS011;2237;51.870;6.160;2023-04-25T01:30:18;10.65;;;2.90;;
4448;SDS011;2237;51.870;6.160;2023-04-25T01:32:45;8.70;;;3.00;;
4448;SDS011;2237;51.870;6.160;2023-04-25T01:35:12;14.13;;;3.17;;
4448;SDS011;2237;51.870;6.160;2023-04-25T01:37:40;8.38;;;3.00;;
4448;SDS011;2237;51.870;6.160;2023-04-25T01:40:08;12.02;;;2.70;;
4448;SDS011;2237;51.870;6.160;2023-04-25T01:42:37;18.08;;;4.68;;
4448;SDS011;2237;51.870;6.160;2023-04-25T01:45:06;9.05;;;3.10;;
4448;SDS011;2237;51.870;6.160;2023-04-25T01:47:34;11.10;;;3.15;;
4448;SDS011;2237;51.870;6.160;2023-04-25T01:50:03;11.70;;;3.80;;
4448;SDS011;2237;51.870;6.160;2023-04-25T01:52:30;12.00;;;3.22;;
4448;SDS011;2237;51.870;6.160;2023-04-25T01:54:57;11.63;;;2.90;;
4448;SDS011;2237;51.870;6.160;2023-04-25T01:57:25;10.02;;;2.90;;
4448;SDS011;2237;51.870;6.160;2023-04-25T01:59:53;8.02;;;1.38;;
4448;SDS011;2237;51.870;6.160;2023-04-25T02:02:25;17.42;;;2.67;;
4448;SDS011;2237;51.870;6.160;2023-04-25T02:04:52;11.20;;;2.58;;
4448;SDS011;2237;51.870;6.160;2023-04-25T02:07:19;15.52;;;2.42;;
4448;SDS011;2237;51.870;6.160;2023-04-25T02:09:45;13.88;;;2.25;;
4448;SDS011;2237;51.870;6.160;2023-04-25T02:12:11;10.82;;;2.35;;
4448;SDS011;2237;51.870;6.160;2023-04-25T02:14:38;13.43;;;2.40;;
4448;SDS011;2237;51.870;6.160;2023-04-25T02:17:04;12.10;;;2.53;;
4448;SDS011;2237;51.870;6.160;2023-04-25T02:19:31;4.90;;;0.93;;
4448;SDS011;2237;51.870;6.160;2023-04-25T02:21:58;6.43;;;1.65;;
4448;SDS011;2237;51.870;6.160;2023-04-25T02:24:24;15.02;;;2.67;;
4448;SDS011;2237;51.870;6.160;2023-04-25T02:26:50;13.68;;;2.85;;
4448;SDS011;2237;51.870;6.160;2023-04-25T02:29:17;10.48;;;2.80;;
4448;SDS011;2237;51.870;6.160;2023-04-25T02:31:43;13.90;;;2.40;;
4448;SDS011;2237;51.870;6.160;2023-04-25T02:34:10;11.05;;;2.60;;
4448;SDS011;2237;51.870;6.160;2023-04-25T02:36:36;11.02;;;2.35;;
4448;SDS011;2237;51.870;6.160;2023-04-25T02:39:02;13.13;;;2.75;;
4448;SDS011;2237;51.870;6.160;2023-04-25T02:41:29;10.15;;;2.47;;
4448;SDS011;2237;51.870;6.160;2023-04-25T02:43:55;13.55;;;3.15;;
4448;SDS011;2237;51.870;6.160;2023-04-25T02:46:22;12.98;;;2.50;;
4448;SDS011;2237;51.870;6.160;2023-04-25T02:49:04;14.73;;;2.63;;
4448;SDS011;2237;51.870;6.160;2023-04-25T02:51:31;11.68;;;1.75;;
4448;SDS011;2237;51.870;6.160;2023-04-25T02:53:58;18.33;;;2.42;;
4448;SDS011;2237;51.870;6.160;2023-04-25T02:56:24;11.43;;;2.80;;
4448;SDS011;2237;51.870;6.160;2023-04-25T02:58:52;13.85;;;2.47;;
4448;SDS011;2237;51.870;6.160;2023-04-25T03:01:19;10.82;;;2.40;;
4448;SDS011;2237;51.870;6.160;2023-04-25T03:03:45;18.98;;;3.22;;
4448;SDS011;2237;51.870;6.160;2023-04-25T03:06:12;8.38;;;2.58;;
4448;SDS011;2237;51.870;6.160;2023-04-25T03:08:38;17.63;;;3.70;;
4448;SDS011;2237;51.870;6.160;2023-04-25T03:11:04;12.65;;;2.65;;
4448;SDS011;2237;51.870;6.160;2023-04-25T03:13:31;8.63;;;1.83;;
4448;SDS011;2237;51.870;6.160;2023-04-25T03:15:57;10.70;;;2.70;;
4448;SDS011;2237;51.870;6.160;2023-04-25T03:18:24;8.90;;;2.22;;
4448;SDS011;2237;51.870;6.160;2023-04-25T03:20:50;11.75;;;2.42;;
4448;SDS011;2237;51.870;6.160;2023-04-25T03:23:16;13.32;;;3.08;;
4448;SDS011;2237;51.870;6.160;2023-04-25T03:25:43;18.98;;;3.20;;
4448;SDS011;2237;51.870;6.160;2023-04-25T03:28:09;12.60;;;2.97;;
4448;SDS011;2237;51.870;6.160;2023-04-25T03:30:35;15.48;;;3.08;;
4448;SDS011;2237;51.870;6.160;2023-04-25T03:33:02;7.65;;;2.55;;
4448;SDS011;2237;51.870;6.160;2023-04-25T03:35:28;6.43;;;1.83;;
4448;SDS011;2237;51.870;6.160;2023-04-25T03:37:55;11.80;;;2.17;;
4448;SDS011;2237;51.870;6.160;2023-04-25T03:40:21;13.75;;;2.40;;
4448;SDS011;2237;51.870;6.160;2023-04-25T03:42:47;11.18;;;2.92;;
4448;SDS011;2237;51.870;6.160;2023-04-25T03:45:14;9.30;;;1.95;;
4448;SDS011;2237;51.870;6.160;2023-04-25T03:47:40;11.93;;;2.47;;
4448;SDS011;2237;51.870;6.160;2023-04-25T03:50:07;11.13;;;2.88;;
4448;SDS011;2237;51.870;6.160;2023-04-25T03:52:33;11.40;;;2.67;;
4448;SDS011;2237;51.870;6.160;2023-04-25T03:55:00;19.00;;;3.05;;
4448;SDS011;2237;51.870;6.160;2023-04-25T03:57:26;9.27;;;1.75;;
4448;SDS011;2237;51.870;6.160;2023-04-25T03:59:52;12.52;;;2.42;;
4448;SDS011;2237;51.870;6.160;2023-04-25T04:02:19;16.10;;;2.50;;
4448;SDS011;2237;51.870;6.160;2023-04-25T04:04:45;9.43;;;2.40;;
4448;SDS011;2237;51.870;6.160;2023-04-25T04:07:12;14.18;;;2.53;;
4448;SDS011;2237;51.870;6.160;2023-04-25T04:09:38;13.48;;;2.33;;
4448;SDS011;2237;51.870;6.160;2023-04-25T04:12:05;7.75;;;2.45;;
4448;SDS011;2237;51.870;6.160;2023-04-25T04:14:31;10.68;;;2.70;;
4448;SDS011;2237;51.870;6.160;2023-04-25T04:16:58;9.65;;;2.60;;
4448;SDS011;2237;51.870;6.160;2023-04-25T04:19:25;12.60;;;2.55;;
4448;SDS011;2237;51.870;6.160;2023-04-25T04:21:51;15.90;;;2.63;;
4448;SDS011;2237;51.870;6.160;2023-04-25T04:24:18;13.35;;;2.53;;
4448;SDS011;2237;51.870;6.160;2023-04-25T04:26:44;16.27;;;2.78;;
4448;SDS011;2237;51.870;6.160;2023-04-25T04:29:11;12.70;;;3.15;;
4448;SDS011;2237;51.870;6.160;2023-04-25T04:31:37;14.85;;;2.85;;
4448;SDS011;2237;51.870;6.160;2023-04-25T04:34:03;11.50;;;2.42;;
4448;SDS011;2237;51.870;6.160;2023-04-25T04:36:30;20.30;;;3.95;;
4448;SDS011;2237;51.870;6.160;2023-04-25T04:38:57;14.45;;;2.80;;
4448;SDS011;2237;51.870;6.160;2023-04-25T04:41:23;8.90;;;2.50;;
4448;SDS011;2237;51.870;6.160;2023-04-25T04:43:49;13.48;;;3.00;;
4448;SDS011;2237;51.870;6.160;2023-04-25T04:46:16;7.95;;;2.30;;
4448;SDS011;2237;51.870;6.160;2023-04-25T04:48:46;12.45;;;2.75;;
4448;SDS011;2237;51.870;6.160;2023-04-25T04:51:13;10.75;;;2.40;;
4448;SDS011;2237;51.870;6.160;2023-04-25T04:53:39;14.23;;;2.85;;
4448;SDS011;2237;51.870;6.160;2023-04-25T04:56:05;15.30;;;2.95;;
4448;SDS011;2237;51.870;6.160;2023-04-25T04:58:32;12.85;;;2.95;;
4448;SDS011;2237;51.870;6.160;2023-04-25T05:00:59;16.58;;;3.35;;
4448;SDS011;2237;51.870;6.160;2023-04-25T05:03:25;16.77;;;3.30;;
4448;SDS011;2237;51.870;6.160;2023-04-25T05:05:53;12.55;;;2.58;;
4448;SDS011;2237;51.870;6.160;2023-04-25T05:08:19;9.38;;;2.33;;
4448;SDS011;2237;51.870;6.160;2023-04-25T05:10:45;12.90;;;2.90;;
4448;SDS011;2237;51.870;6.160;2023-04-25T05:13:12;13.35;;;3.03;;
4448;SDS011;2237;51.870;6.160;2023-04-25T05:15:38;14.15;;;3.15;;
4448;SDS011;2237;51.870;6.160;2023-04-25T05:18:04;15.18;;;2.92;;
4448;SDS011;2237;51.870;6.160;2023-04-25T05:20:31;14.73;;;2.75;;
4448;SDS011;2237;51.870;6.160;2023-04-25T05:22:58;5.32;;;2.30;;
4448;SDS011;2237;51.870;6.160;2023-04-25T05:25:24;10.15;;;2.90;;
4448;SDS011;2237;51.870;6.160;2023-04-25T05:27:50;11.15;;;2.85;;
4448;SDS011;2237;51.870;6.160;2023-04-25T05:30:18;13.88;;;2.70;;
4448;SDS011;2237;51.870;6.160;2023-04-25T05:32:44;9.48;;;2.42;;
4448;SDS011;2237;51.870;6.160;2023-04-25T05:35:12;12.15;;;2.40;;
4448;SDS011;2237;51.870;6.160;2023-04-25T05:37:39;13.32;;;2.67;;
4448;SDS011;2237;51.870;6.160;2023-04-25T05:40:06;8.02;;;2.28;;
4448;SDS011;2237;51.870;6.160;2023-04-25T05:42:32;15.30;;;2.78;;
4448;SDS011;2237;51.870;6.160;2023-04-25T05:44:59;7.75;;;2.25;;
4448;SDS011;2237;51.870;6.160;2023-04-25T05:47:25;8.30;;;2.00;;
4448;SDS011;2237;51.870;6.160;2023-04-25T05:49:52;7.57;;;2.30;;
4448;SDS011;2237;51.870;6.160;2023-04-25T05:52:18;8.88;;;2.58;;
4448;SDS011;2237;51.870;6.160;2023-04-25T05:54:45;7.78;;;2.10;;
4448;SDS011;2237;51.870;6.160;2023-04-25T05:57:21;10.45;;;2.50;;
4448;SDS011;2237;51.870;6.160;2023-04-25T05:59:49;10.05;;;2.42;;
4448;SDS011;2237;51.870;6.160;2023-04-25T06:02:15;15.38;;;2.00;;
4448;SDS011;2237;51.870;6.160;2023-04-25T06:04:42;8.52;;;2.15;;
4448;SDS011;2237;51.870;6.160;2023-04-25T06:07:09;12.50;;;2.00;;
4448;SDS011;2237;51.870;6.160;2023-04-25T06:09:35;8.70;;;1.80;;
4448;SDS011;2237;51.870;6.160;2023-04-25T06:12:02;10.73;;;2.17;;
4448;SDS011;2237;51.870;6.160;2023-04-25T06:14:29;5.85;;;1.63;;
4448;SDS011;2237;51.870;6.160;2023-04-25T06:16:56;5.05;;;1.40;;
4448;SDS011;2237;51.870;6.160;2023-04-25T06:19:22;5.55;;;1.08;;
4448;SDS011;2237;51.870;6.160;2023-04-25T06:21:49;4.85;;;1.15;;
4448;SDS011;2237;51.870;6.160;2023-04-25T06:24:15;8.82;;;1.70;;
4448;SDS011;2237;51.870;6.160;2023-04-25T06:26:41;6.93;;;1.48;;
4448;SDS011;2237;51.870;6.160;2023-04-25T06:29:08;4.93;;;1.15;;
4448;SDS011;2237;51.870;6.160;2023-04-25T06:31:35;4.72;;;0.88;;
4448;SDS011;2237;51.870;6.160;2023-04-25T06:34:01;2.90;;;0.85;;
4448;SDS011;2237;51.870;6.160;2023-04-25T06:36:28;5.63;;;1.23;;
4448;SDS011;2237;51.870;6.160;2023-04-25T06:38:54;6.03;;;1.00;;
4448;SDS011;2237;51.870;6.160;2023-04-25T06:41:21;5.22;;;1.40;;
4448;SDS011;2237;51.870;6.160;2023-04-25T06:43:47;6.43;;;1.00;;
4448;SDS011;2237;51.870;6.160;2023-04-25T06:46:13;6.68;;;1.10;;
4448;SDS011;2237;51.870;6.160;2023-04-25T06:48:40;6.03;;;1.10;;
4448;SDS011;2237;51.870;6.160;2023-04-25T06:51:06;3.42;;;0.90;;
4448;SDS011;2237;51.870;6.160;2023-04-25T06:53:32;3.83;;;0.98;;
4448;SDS011;2237;51.870;6.160;2023-04-25T06:55:59;5.15;;;0.88;;
4448;SDS011;2237;51.870;6.160;2023-04-25T06:58:25;7.20;;;1.00;;
4448;SDS011;2237;51.870;6.160;2023-04-25T07:00:52;1.38;;;0.45;;
4448;SDS011;2237;51.870;6.160;2023-04-25T07:03:19;6.85;;;0.82;;
4448;SDS011;2237;51.870;6.160;2023-04-25T07:05:45;2.10;;;0.70;;
4448;SDS011;2237;51.870;6.160;2023-04-25T07:08:12;3.95;;;1.10;;
4448;SDS011;2237;51.870;6.160;2023-04-25T07:10:38;5.28;;;1.25;;
4448;SDS011;2237;51.870;6.160;2023-04-25T07:13:05;0.95;;;0.50;;
4448;SDS011;2237;51.870;6.160;2023-04-25T07:15:31;4.75;;;0.70;;
4448;SDS011;2237;51.870;6.160;2023-04-25T07:17:57;2.05;;;0.70;;
4448;SDS011;2237;51.870;6.160;2023-04-25T07:20:24;3.03;;;0.57;;
4448;SDS011;2237;51.870;6.160;2023-04-25T07:22:50;3.78;;;0.70;;
4448;SDS011;2237;51.870;6.160;2023-04-25T07:25:17;3.30;;;0.70;;
4448;SDS011;2237;51.870;6.160;2023-04-25T07:27:43;4.25;;;0.85;;
4448;SDS011;2237;51.870;6.160;2023-04-25T07:30:10;3.00;;;0.80;;
4448;SDS011;2237;51.870;6.160;2023-04-25T07:32:38;7.30;;;1.10;;
4448;SDS011;2237;51.870;6.160;2023-04-25T07:35:05;5.47;;;0.90;;
4448;SDS011;2237;51.870;6.160;2023-04-25T07:37:33;4.45;;;0.68;;
4448;SDS011;2237;51.870;6.160;2023-04-25T07:40:01;9.13;;;1.08;;
4448;SDS011;2237;51.870;6.160;2023-04-25T07:42:30;5.82;;;1.23;;
4448;SDS011;2237;51.870;6.160;2023-04-25T07:44:56;1.85;;;0.73;;
4448;SDS011;2237;51.870;6.160;2023-04-25T07:47:23;7.53;;;1.30;;
4448;SDS011;2237;51.870;6.160;2023-04-25T07:49:49;4.32;;;0.90;;
4448;SDS011;2237;51.870;6.160;2023-04-25T07:52:15;3.95;;;0.82;;
4448;SDS011;2237;51.870;6.160;2023-04-25T07:54:42;1.80;;;0.80;;
4448;SDS011;2237;51.870;6.160;2023-04-25T07:57:08;4.25;;;0.70;;
4448;SDS011;2237;51.870;6.160;2023-04-25T07:59:35;3.25;;;0.75;;
4448;SDS011;2237;51.870;6.160;2023-04-25T08:02:01;5.30;;;1.00;;
4448;SDS011;2237;51.870;6.160;2023-04-25T08:04:28;6.82;;;1.30;;
4448;SDS011;2237;51.870;6.160;2023-04-25T08:06:55;2.15;;;0.70;;
4448;SDS011;2237;51.870;6.160;2023-04-25T08:09:21;6.22;;;1.02;;
4448;SDS011;2237;51.870;6.160;2023-04-25T08:11:48;4.53;;;0.80;;
4448;SDS011;2237;51.870;6.160;2023-04-25T08:14:14;5.45;;;0.85;;
4448;SDS011;2237;51.870;6.160;2023-04-25T08:16:41;4.82;;;1.50;;
4448;SDS011;2237;51.870;6.160;2023-04-25T08:19:09;4.03;;;0.70;;
4448;SDS011;2237;51.870;6.160;2023-04-25T08:21:37;3.70;;;0.63;;
4448;SDS011;2237;51.870;6.160;2023-04-25T08:24:03;5.65;;;1.00;;
4448;SDS011;2237;51.870;6.160;2023-04-25T08:26:30;2.42;;;0.88;;
4448;SDS011;2237;51.870;6.160;2023-04-25T08:28:56;2.90;;;0.75;;
4448;SDS011;2237;51.870;6.160;2023-04-25T08:31:22;7.28;;;1.70;;
4448;SDS011;2237;51.870;6.160;2023-04-25T08:33:49;7.30;;;1.98;;
4448;SDS011;2237;51.870;6.160;2023-04-25T08:36:17;5.05;;;1.15;;
4448;SDS011;2237;51.870;6.160;2023-04-25T08:39:04;5.93;;;0.88;;
4448;SDS011;2237;51.870;6.160;2023-04-25T08:41:30;3.05;;;1.10;;
4448;SDS011;2237;51.870;6.160;2023-04-25T08:43:57;3.75;;;0.60;;
4448;SDS011;2237;51.870;6.160;2023-04-25T08:46:26;6.85;;;1.13;;
4448;SDS011;2237;51.870;6.160;2023-04-25T08:48:53;7.47;;;1.65;;
4448;SDS011;2237;51.870;6.160;2023-04-25T08:51:26;5.95;;;1.10;;
4448;SDS011;2237;51.870;6.160;2023-04-25T08:53:54;5.43;;;1.25;;
4448;SDS011;2237;51.870;6.160;2023-04-25T08:56:25;2.92;;;0.90;;
4448;SDS011;2237;51.870;6.160;2023-04-25T08:58:54;3.53;;;0.60;;
4448;SDS011;2237;51.870;6.160;2023-04-25T09:01:21;5.68;;;1.40;;
4448;SDS011;2237;51.870;6.160;2023-04-25T09:03:48;1.27;;;0.55;;
4448;SDS011;2237;51.870;6.160;2023-04-25T09:06:15;6.38;;;1.38;;
4448;SDS011;2237;51.870;6.160;2023-04-25T09:08:43;5.55;;;0.70;;
4448;SDS011;2237;51.870;6.160;2023-04-25T09:11:10;4.43;;;0.60;;
4448;SDS011;2237;51.870;6.160;2023-04-25T09:13:37;2.88;;;0.68;;
4448;SDS011;2237;51.870;6.160;2023-04-25T09:16:03;4.72;;;1.05;;
4448;SDS011;2237;51.870;6.160;2023-04-25T09:18:31;3.10;;;0.70;;
4448;SDS011;2237;51.870;6.160;2023-04-25T09:21:09;5.65;;;0.80;;
4448;SDS011;2237;51.870;6.160;2023-04-25T09:23:46;3.73;;;0.67;;
4448;SDS011;2237;51.870;6.160;2023-04-25T09:26:14;1.35;;;0.30;;
4448;SDS011;2237;51.870;6.160;2023-04-25T09:28:43;4.68;;;0.80;;
4448;SDS011;2237;51.870;6.160;2023-04-25T09:31:09;4.32;;;1.13;;
4448;SDS011;2237;51.870;6.160;2023-04-25T09:33:37;4.40;;;0.88;;
4448;SDS011;2237;51.870;6.160;2023-04-25T09:36:05;3.60;;;0.80;;
4448;SDS011;2237;51.870;6.160;2023-04-25T09:38:43;3.03;;;0.57;;
4448;SDS011;2237;51.870;6.160;2023-04-25T09:41:11;3.30;;;0.93;;
4448;SDS011;2237;51.870;6.160;2023-04-25T09:43:38;2.25;;;0.82;;
4448;SDS011;2237;51.870;6.160;2023-04-25T09:46:09;7.60;;;1.00;;
4448;SDS011;2237;51.870;6.160;2023-04-25T09:48:37;2.15;;;0.68;;
4448;SDS011;2237;51.870;6.160;2023-04-25T09:51:11;2.45;;;0.88;;
4448;SDS011;2237;51.870;6.160;2023-04-25T09:53:40;4.85;;;0.68;;
4448;SDS011;2237;51.870;6.160;2023-04-25T09:56:10;6.53;;;1.70;;
4448;SDS011;2237;51.870;6.160;2023-04-25T09:58:38;3.45;;;0.82;;
4448;SDS011;2237;51.870;6.160;2023-04-25T10:01:06;5.25;;;0.73;;
4448;SDS011;2237;51.870;6.160;2023-04-25T10:03:34;5.63;;;0.60;;
4448;SDS011;2237;51.870;6.160;2023-04-25T10:06:03;3.75;;;0.70;;
4448;SDS011;2237;51.870;6.160;2023-04-25T10:08:36;3.88;;;0.43;;
4448;SDS011;2237;51.870;6.160;2023-04-25T10:11:04;1.38;;;0.40;;
4448;SDS011;2237;51.870;6.160;2023-04-25T10:13:33;3.80;;;0.45;;
4448;SDS011;2237;51.870;6.160;2023-04-25T10:16:02;3.25;;;0.40;;
4448;SDS011;2237;51.870;6.160;2023-04-25T10:18:30;3.70;;;0.68;;
4448;SDS011;2237;51.870;6.160;2023-04-25T10:20:59;2.17;;;0.55;;
4448;SDS011;2237;51.870;6.160;2023-04-25T10:23:27;3.13;;;0.47;;
4448;SDS011;2237;51.870;6.160;2023-04-25T10:25:56;3.72;;;0.40;;
4448;SDS011;2237;51.870;6.160;2023-04-25T10:28:23;1.30;;;0.20;;
4448;SDS011;2237;51.870;6.160;2023-04-25T10:31:03;1.77;;;0.20;;
4448;SDS011;2237;51.870;6.160;2023-04-25T10:36:08;4.97;;;0.68;;
4448;SDS011;2237;51.870;6.160;2023-04-25T10:38:38;3.00;;;0.60;;
4448;SDS011;2237;51.870;6.160;2023-04-25T10:41:06;1.95;;;0.30;;
4448;SDS011;2237;51.870;6.160;2023-04-25T10:43:40;4.28;;;0.55;;
4448;SDS011;2237;51.870;6.160;2023-04-25T10:54:01;3.38;;;0.80;;
4448;SDS011;2237;51.870;6.160;2023-04-25T10:56:30;2.03;;;0.40;;
4448;SDS011;2237;51.870;6.160;2023-04-25T10:59:07;3.38;;;0.43;;
4448;SDS011;2237;51.870;6.160;2023-04-25T11:01:36;2.10;;;0.30;;
4448;SDS011;2237;51.870;6.160;2023-04-25T11:04:03;4.30;;;0.50;;
4448;SDS011;2237;51.870;6.160;2023-04-25T11:09:32;2.20;;;0.77;;
4448;SDS011;2237;51.870;6.160;2023-04-25T11:11:59;2.60;;;0.35;;
4448;SDS011;2237;51.870;6.160;2023-04-25T11:14:26;5.15;;;0.90;;
4448;SDS011;2237;51.870;6.160;2023-04-25T11:16:53;3.60;;;0.50;;
4448;SDS011;2237;51.870;6.160;2023-04-25T11:19:25;4.82;;;0.45;;
4448;SDS011;2237;51.870;6.160;2023-04-25T11:21:58;4.00;;;0.80;;
4448;SDS011;2237;51.870;6.160;2023-04-25T11:24:29;3.35;;;0.60;;
4448;SDS011;2237;51.870;6.160;2023-04-25T11:26:58;3.97;;;0.50;;
4448;SDS011;2237;51.870;6.160;2023-04-25T11:29:28;2.25;;;0.40;;
4448;SDS011;2237;51.870;6.160;2023-04-25T11:31:56;2.97;;;0.77;;
4448;SDS011;2237;51.870;6.160;2023-04-25T11:36:56;2.13;;;0.32;;
4448;SDS011;2237;51.870;6.160;2023-04-25T11:39:26;1.73;;;0.30;;
4448;SDS011;2237;51.870;6.160;2023-04-25T11:41:53;5.65;;;0.30;;
4448;SDS011;2237;51.870;6.160;2023-04-25T11:44:21;2.75;;;0.40;;
4448;SDS011;2237;51.870;6.160;2023-04-25T11:46:48;1.70;;;0.30;;
4448;SDS011;2237;51.870;6.160;2023-04-25T11:49:15;4.30;;;0.45;;
4448;SDS011;2237;51.870;6.160;2023-04-25T11:51:44;1.27;;;0.32;;
4448;SDS011;2237;51.870;6.160;2023-04-25T11:54:12;3.15;;;0.60;;
4448;SDS011;2237;51.870;6.160;2023-04-25T11:56:43;7.05;;;0.70;;
4448;SDS011;2237;51.870;6.160;2023-04-25T12:01:38;1.55;;;0.30;;
4448;SDS011;2237;51.870;6.160;2023-04-25T12:04:10;5.00;;;0.52;;
4448;SDS011;2237;51.870;6.160;2023-04-25T12:06:41;1.17;;;0.40;;
4448;SDS011;2237;51.870;6.160;2023-04-25T12:09:10;2.22;;;0.52;;
4448;SDS011;2237;51.870;6.160;2023-04-25T12:11:42;3.08;;;0.55;;
4448;SDS011;2237;51.870;6.160;2023-04-25T12:14:21;2.13;;;0.30;;
4448;SDS011;2237;51.870;6.160;2023-04-25T12:16:50;1.85;;;0.43;;
4448;SDS011;2237;51.870;6.160;2023-04-25T12:19:19;4.53;;;0.60;;
4448;SDS011;2237;51.870;6.160;2023-04-25T12:21:46;2.08;;;0.45;;
4448;SDS011;2237;51.870;6.160;2023-04-25T12:24:17;0.88;;;0.20;;
4448;SDS011;2237;51.870;6.160;2023-04-25T12:27:04;2.85;;;0.32;;
4448;SDS011;2237;51.870;6.160;2023-04-25T12:29:32;2.53;;;0.28;;
4448;SDS011;2237;51.870;6.160;2023-04-25T12:32:14;1.85;;;0.50;;
4448;SDS011;2237;51.870;6.160;2023-04-25T12:34:41;2.67;;;0.60;;
4448;SDS011;2237;51.870;6.160;2023-04-25T12:37:08;0.80;;;0.15;;
4448;SDS011;2237;51.870;6.160;2023-04-25T12:39:38;3.33;;;0.65;;
4448;SDS011;2237;51.870;6.160;2023-04-25T12:42:05;1.27;;;0.40;;
4448;SDS011;2237;51.870;6.160;2023-04-25T12:44:35;1.02;;;0.20;;
4448;SDS011;2237;51.870;6.160;2023-04-25T12:47:01;2.05;;;0.30;;
4448;SDS011;2237;51.870;6.160;2023-04-25T12:49:29;2.92;;;0.50;;
4448;SDS011;2237;51.870;6.160;2023-04-25T12:51:55;4.65;;;0.55;;
4448;SDS011;2237;51.870;6.160;2023-04-25T12:54:21;0.95;;;0.73;;
4448;SDS011;2237;51.870;6.160;2023-04-25T12:56:48;3.65;;;0.90;;
4448;SDS011;2237;51.870;6.160;2023-04-25T12:59:16;6.57;;;0.70;;
4448;SDS011;2237;51.870;6.160;2023-04-25T13:01:43;3.40;;;1.10;;
4448;SDS011;2237;51.870;6.160;2023-04-25T13:04:10;4.00;;;0.85;;
4448;SDS011;2237;51.870;6.160;2023-04-25T13:06:37;6.38;;;0.70;;
4448;SDS011;2237;51.870;6.160;2023-04-25T13:09:03;4.85;;;0.70;;
4448;SDS011;2237;51.870;6.160;2023-04-25T13:11:30;4.28;;;0.75;;
4448;SDS011;2237;51.870;6.160;2023-04-25T13:13:57;4.68;;;0.65;;
4448;SDS011;2237;51.870;6.160;2023-04-25T13:16:24;3.55;;;0.40;;
4448;SDS011;2237;51.870;6.160;2023-04-25T13:18:50;2.55;;;0.50;;
4448;SDS011;2237;51.870;6.160;2023-04-25T13:21:17;3.22;;;0.60;;
4448;SDS011;2237;51.870;6.160;2023-04-25T13:23:43;4.30;;;0.60;;
4448;SDS011;2237;51.870;6.160;2023-04-25T13:26:10;2.30;;;0.50;;
4448;SDS011;2237;51.870;6.160;2023-04-25T13:28:37;6.00;;;0.55;;
4448;SDS011;2237;51.870;6.160;2023-04-25T13:31:03;3.22;;;1.45;;
4448;SDS011;2237;51.870;6.160;2023-04-25T13:33:29;4.45;;;0.50;;
4448;SDS011;2237;51.870;6.160;2023-04-25T13:35:56;3.45;;;0.43;;
4448;SDS011;2237;51.870;6.160;2023-04-25T13:38:23;3.90;;;0.52;;
4448;SDS011;2237;51.870;6.160;2023-04-25T13:40:51;1.45;;;0.55;;
4448;SDS011;2237;51.870;6.160;2023-04-25T13:43:21;3.63;;;0.68;;
4448;SDS011;2237;51.870;6.160;2023-04-25T13:45:48;4.70;;;0.80;;
4448;SDS011;2237;51.870;6.160;2023-04-25T13:48:16;4.00;;;0.50;;
4448;SDS011;2237;51.870;6.160;2023-04-25T13:50:42;1.63;;;0.60;;
4448;SDS011;2237;51.870;6.160;2023-04-25T13:53:08;2.85;;;0.80;;
4448;SDS011;2237;51.870;6.160;2023-04-25T13:55:35;3.42;;;0.82;;
4448;SDS011;2237;51.870;6.160;2023-04-25T13:58:03;4.40;;;0.80;;
4448;SDS011;2237;51.870;6.160;2023-04-25T14:00:35;2.35;;;0.50;;
4448;SDS011;2237;51.870;6.160;2023-04-25T14:03:04;1.75;;;0.38;;
4448;SDS011;2237;51.870;6.160;2023-04-25T14:05:34;3.53;;;0.52;;
4448;SDS011;2237;51.870;6.160;2023-04-25T14:08:06;2.60;;;0.38;;
4448;SDS011;2237;51.870;6.160;2023-04-25T14:10:33;1.85;;;0.28;;
4448;SDS011;2237;51.870;6.160;2023-04-25T14:13:00;4.20;;;0.60;;
4448;SDS011;2237;51.870;6.160;2023-04-25T14:15:29;2.92;;;0.90;;
4448;SDS011;2237;51.870;6.160;2023-04-25T14:17:59;2.10;;;0.40;;
4448;SDS011;2237;51.870;6.160;2023-04-25T14:20:27;1.85;;;0.40;;
4448;SDS011;2237;51.870;6.160;2023-04-25T14:22:53;2.30;;;0.50;;
4448;SDS011;2237;51.870;6.160;2023-04-25T14:25:22;4.38;;;0.57;;
4448;SDS011;2237;51.870;6.160;2023-04-25T14:27:49;2.78;;;0.70;;
4448;SDS011;2237;51.870;6.160;2023-04-25T14:30:16;3.10;;;0.68;;
4448;SDS011;2237;51.870;6.160;2023-04-25T14:32:48;3.08;;;0.57;;
4448;SDS011;2237;51.870;6.160;2023-04-25T14:35:15;4.68;;;0.80;;
4448;SDS011;2237;51.870;6.160;2023-04-25T14:37:41;1.20;;;0.40;;
4448;SDS011;2237;51.870;6.160;2023-04-25T14:40:08;1.60;;;0.38;;
4448;SDS011;2237;51.870;6.160;2023-04-25T14:42:36;1.75;;;0.43;;
4448;SDS011;2237;51.870;6.160;2023-04-25T14:45:03;4.00;;;0.70;;
4448;SDS011;2237;51.870;6.160;2023-04-25T14:47:31;1.02;;;0.35;;
4448;SDS011;2237;51.870;6.160;2023-04-25T14:49:57;1.98;;;0.40;;
4448;SDS011;2237;51.870;6.160;2023-04-25T14:52:24;2.65;;;0.80;;
4448;SDS011;2237;51.870;6.160;2023-04-25T14:54:51;2.63;;;0.40;;
4448;SDS011;2237;51.870;6.160;2023-04-25T14:57:17;4.57;;;0.50;;
4448;SDS011;2237;51.870;6.160;2023-04-25T14:59:44;4.05;;;0.57;;
4448;SDS011;2237;51.870;6.160;2023-04-25T15:02:11;2.42;;;0.40;;
4448;SDS011;2237;51.870;6.160;2023-04-25T15:04:38;3.83;;;0.88;;
4448;SDS011;2237;51.870;6.160;2023-04-25T15:07:04;5.38;;;0.70;;
4448;SDS011;2237;51.870;6.160;2023-04-25T15:09:31;6.32;;;0.80;;
4448;SDS011;2237;51.870;6.160;2023-04-25T15:11:57;1.25;;;0.60;;
4448;SDS011;2237;51.870;6.160;2023-04-25T15:14:24;1.13;;;0.50;;
4448;SDS011;2237;51.870;6.160;2023-04-25T15:16:50;3.38;;;0.77;;
4448;SDS011;2237;51.870;6.160;2023-04-25T15:19:17;4.07;;;0.65;;
4448;SDS011;2237;51.870;6.160;2023-04-25T15:21:43;1.63;;;0.52;;
4448;SDS011;2237;51.870;6.160;2023-04-25T15:24:10;1.63;;;0.35;;
4448;SDS011;2237;51.870;6.160;2023-04-25T15:26:37;2.13;;;0.45;;
4448;SDS011;2237;51.870;6.160;2023-04-25T15:29:03;2.40;;;1.05;;
4448;SDS011;2237;51.870;6.160;2023-04-25T15:31:32;3.65;;;0.50;;
4448;SDS011;2237;51.870;6.160;2023-04-25T15:33:58;2.28;;;0.47;;